sensor_id;sensor_type;location;lat;lon;timestamp;pressure;altitude;pressure_sealevel;temperature;humidity
77454;BME280;66538;53.150;18.160;2023-07-02T00:02:16;99954.75;;;20.94;56.17
77454;BME280;66538;53.150;18.160;2023-07-02T00:04:43;99956.58;;;20.94;56.17
77454;BME280;66538;53.150;18.160;2023-07-02T00:07:10;99958.70;;;20.93;56.23
77454;BME280;66538;53.150;18.160;2023-07-02T00:09:39;99954.63;;;20.92;56.33
77454;BME280;66538;53.150;18.160;2023-07-02T00:12:06;99951.95;;;20.89;56.24
77454;BME280;66538;53.150;18.160;2023-07-02T00:14:33;99949.86;;;20.88;56.62
77454;BME280;66538;53.150;18.160;2023-07-02T00:17:00;99954.70;;;20.86;56.52
77454;BME280;66538;53.150;18.160;2023-07-02T00:19:26;99952.75;;;20.83;56.55
77454;BME280;66538;53.150;18.160;2023-07-02T00:21:53;99959.30;;;20.81;56.76
77454;BME280;66538;53.150;18.160;2023-07-02T00:24:20;99965.86;;;20.79;56.93
77454;BME280;66538;53.150;18.160;2023-07-02T00:26:46;99962.65;;;20.76;56.80
77454;BME280;66538;53.150;18.160;2023-07-02T00:29:13;99959.60;;;20.75;57.09
77454;BME280;66538;53.150;18.160;2023-07-02T00:31:40;99955.94;;;20.73;57.21
77454;BME280;66538;53.150;18.160;2023-07-02T00:34:07;99954.15;;;20.71;57.30
77454;BME280;66538;53.150;18.160;2023-07-02T00:36:33;99955.61;;;20.70;57.32
77454;BME280;66538;53.150;18.160;2023-07-02T00:39:00;99949.89;;;20.68;57.40
77454;BME280;66538;53.150;18.160;2023-07-02T00:41:29;99947.65;;;20.67;57.59
77454;BME280;66538;53.150;18.160;2023-07-02T00:43:57;99946.53;;;20.63;57.46
77454;BME280;66538;53.150;18.160;2023-07-02T00:46:24;99941.71;;;20.60;57.69
77454;BME280;66538;53.150;18.160;2023-07-02T00:48:54;99940.09;;;20.58;58.04
77454;BME280;66538;53.150;18.160;2023-07-02T00:51:25;99935.70;;;20.56;57.89
77454;BME280;66538;53.150;18.160;2023-07-02T00:53:53;99935.73;;;20.54;57.96
77454;BME280;66538;53.150;18.160;2023-07-02T00:56:22;99937.39;;;20.52;58.07
77454;BME280;66538;53.150;18.160;2023-07-02T00:58:51;99934.05;;;20.47;58.20
77454;BME280;66538;53.150;18.160;2023-07-02T01:01:22;99930.84;;;20.43;58.75
77454;BME280;66538;53.150;18.160;2023-07-02T01:03:58;99928.56;;;20.37;58.82
77454;BME280;66538;53.150;18.160;2023-07-02T01:06:33;99925.11;;;20.32;58.99
77454;BME280;66538;53.150;18.160;2023-07-02T01:09:05;99922.03;;;20.29;58.94
77454;BME280;66538;53.150;18.160;2023-07-02T01:11:35;99925.11;;;20.27;59.19
77454;BME280;66538;53.150;18.160;2023-07-02T01:14:16;99919.36;;;20.24;59.28
77454;BME280;66538;53.150;18.160;2023-07-02T01:16:43;99925.05;;;20.21;59.42
77454;BME280;66538;53.150;18.160;2023-07-02T01:19:13;99926.40;;;20.19;59.82
77454;BME280;66538;53.150;18.160;2023-07-02T01:21:49;99923.94;;;20.15;59.95
77454;BME280;66538;53.150;18.160;2023-07-02T01:24:16;99930.50;;;20.14;59.96
77454;BME280;66538;53.150;18.160;2023-07-02T01:26:44;99926.83;;;20.12;59.93
77454;BME280;66538;53.150;18.160;2023-07-02T01:29:21;99921.44;;;20.11;60.04
77454;BME280;66538;53.150;18.160;2023-07-02T01:31:47;99924.02;;;20.10;60.42
77454;BME280;66538;53.150;18.160;2023-07-02T01:34:14;99919.70;;;20.06;60.61
77454;BME280;66538;53.150;18.160;2023-07-02T01:36:41;99924.52;;;20.04;60.65
77454;BME280;66538;53.150;18.160;2023-07-02T01:39:08;99915.47;;;20.01;61.12
77454;BME280;66538;53.150;18.160;2023-07-02T01:41:43;99917.10;;;19.98;61.29
77454;BME280;66538;53.150;18.160;2023-07-02T01:44:10;99915.60;;;19.93;61.86
77454;BME280;66538;53.150;18.160;2023-07-02T01:46:38;99917.25;;;19.87;62.05
77454;BME280;66538;53.150;18.160;2023-07-02T01:49:05;99916.63;;;19.84;62.20
77454;BME280;66538;53.150;18.160;2023-07-02T01:51:33;99915.34;;;19.81;62.42
77454;BME280;66538;53.150;18.160;2023-07-02T01:54:00;99915.63;;;19.77;62.25
77454;BME280;66538;53.150;18.160;2023-07-02T01:56:27;99913.75;;;19.75;62.76
77454;BME280;66538;53.150;18.160;2023-07-02T01:58:54;99920.74;;;19.72;62.96
77454;BME280;66538;53.150;18.160;2023-07-02T02:01:21;99918.06;;;19.69;63.65
77454;BME280;66538;53.150;18.160;2023-07-02T02:03:47;99915.51;;;19.65;64.37
77454;BME280;66538;53.150;18.160;2023-07-02T02:06:14;99910.15;;;19.57;64.79
77454;BME280;66538;53.150;18.160;2023-07-02T02:08:41;99908.08;;;19.49;64.95
77454;BME280;66538;53.150;18.160;2023-07-02T02:11:07;99909.67;;;19.44;65.09
77454;BME280;66538;53.150;18.160;2023-07-02T02:13:34;99910.77;;;19.39;65.38
77454;BME280;66538;53.150;18.160;2023-07-02T02:16:01;99909.29;;;19.35;65.43
77454;BME280;66538;53.150;18.160;2023-07-02T02:18:28;99903.86;;;19.32;65.90
77454;BME280;66538;53.150;18.160;2023-07-02T02:20:54;99906.17;;;19.28;66.16
77454;BME280;66538;53.150;18.160;2023-07-02T02:23:21;99900.36;;;19.24;65.94
77454;BME280;66538;53.150;18.160;2023-07-02T02:25:47;99903.20;;;19.22;66.10
77454;BME280;66538;53.150;18.160;2023-07-02T02:28:14;99902.95;;;19.19;66.33
77454;BME280;66538;53.150;18.160;2023-07-02T02:30:41;99905.91;;;19.18;66.41
77454;BME280;66538;53.150;18.160;2023-07-02T02:33:07;99909.09;;;19.17;66.84
77454;BME280;66538;53.150;18.160;2023-07-02T02:35:34;99903.05;;;19.15;66.90
77454;BME280;66538;53.150;18.160;2023-07-02T02:38:02;99904.67;;;19.16;66.80
77454;BME280;66538;53.150;18.160;2023-07-02T02:40:30;99905.70;;;19.17;67.45
77454;BME280;66538;53.150;18.160;2023-07-02T02:42:57;99909.41;;;19.17;67.34
77454;BME280;66538;53.150;18.160;2023-07-02T02:45:24;99909.98;;;19.17;68.12
77454;BME280;66538;53.150;18.160;2023-07-02T02:47:50;99907.45;;;19.17;68.25
77454;BME280;66538;53.150;18.160;2023-07-02T02:50:17;99908.09;;;19.15;68.45
77454;BME280;66538;53.150;18.160;2023-07-02T02:52:43;99907.21;;;19.15;68.67
77454;BME280;66538;53.150;18.160;2023-07-02T02:55:11;99909.84;;;19.13;68.85
77454;BME280;66538;53.150;18.160;2023-07-02T02:57:38;99901.96;;;19.08;70.03
77454;BME280;66538;53.150;18.160;2023-07-02T03:00:05;99894.40;;;19.00;70.22
77454;BME280;66538;53.150;18.160;2023-07-02T03:02:33;99900.05;;;18.95;70.30
77454;BME280;66538;53.150;18.160;2023-07-02T03:05:00;99897.22;;;18.91;70.47
77454;BME280;66538;53.150;18.160;2023-07-02T03:07:29;99897.73;;;18.87;71.08
77454;BME280;66538;53.150;18.160;2023-07-02T03:09:56;99897.97;;;18.85;71.02
77454;BME280;66538;53.150;18.160;2023-07-02T03:12:23;99897.67;;;18.83;71.61
77454;BME280;66538;53.150;18.160;2023-07-02T03:14:49;99897.41;;;18.80;71.80
77454;BME280;66538;53.150;18.160;2023-07-02T03:17:22;99895.20;;;18.75;72.28
77454;BME280;66538;53.150;18.160;2023-07-02T03:19:49;99894.59;;;18.73;72.62
77454;BME280;66538;53.150;18.160;2023-07-02T03:22:16;99896.23;;;18.71;73.26
77454;BME280;66538;53.150;18.160;2023-07-02T03:24:43;99895.67;;;18.68;72.79
77454;BME280;66538;53.150;18.160;2023-07-02T03:27:09;99892.00;;;18.69;73.40
77454;BME280;66538;53.150;18.160;2023-07-02T03:29:36;99891.35;;;18.68;73.46
77454;BME280;66538;53.150;18.160;2023-07-02T03:32:05;99891.00;;;18.69;73.70
77454;BME280;66538;53.150;18.160;2023-07-02T03:34:32;99887.95;;;18.69;73.53
77454;BME280;66538;53.150;18.160;2023-07-02T03:36:58;99886.62;;;18.74;73.43
77454;BME280;66538;53.150;18.160;2023-07-02T03:39:25;99887.95;;;18.79;73.45
77454;BME280;66538;53.150;18.160;2023-07-02T03:41:52;99884.13;;;18.82;73.34
77454;BME280;66538;53.150;18.160;2023-07-02T03:44:18;99887.82;;;18.87;73.35
77454;BME280;66538;53.150;18.160;2023-07-02T03:46:46;99884.91;;;18.89;73.29
77454;BME280;66538;53.150;18.160;2023-07-02T03:49:12;99886.84;;;18.93;73.46
77454;BME280;66538;53.150;18.160;2023-07-02T03:51:39;99891.39;;;18.94;73.30
77454;BME280;66538;53.150;18.160;2023-07-02T03:54:06;99891.84;;;18.94;73.40
77454;BME280;66538;53.150;18.160;2023-07-02T03:56:32;99894.56;;;18.96;73.24
77454;BME280;66538;53.150;18.160;2023-07-02T03:58:59;99894.48;;;18.98;73.07
77454;BME280;66538;53.150;18.160;2023-07-02T04:01:25;99896.03;;;19.02;73.17
77454;BME280;66538;53.150;18.160;2023-07-02T04:03:53;99895.88;;;19.04;72.86
77454;BME280;66538;53.150;18.160;2023-07-02T04:06:20;99894.77;;;19.09;73.14
77454;BME280;66538;53.150;18.160;2023-07-02T04:08:47;99895.11;;;19.13;72.68
77454;BME280;66538;53.150;18.160;2023-07-02T04:11:14;99891.41;;;19.15;72.71
77454;BME280;66538;53.150;18.160;2023-07-02T04:13:41;99894.08;;;19.17;72.44
77454;BME280;66538;53.150;18.160;2023-07-02T04:16:07;99891.24;;;19.17;72.90
77454;BME280;66538;53.150;18.160;2023-07-02T04:18:34;99890.73;;;19.18;72.73
77454;BME280;66538;53.150;18.160;2023-07-02T04:21:01;99887.79;;;19.20;72.40
77454;BME280;66538;53.150;18.160;2023-07-02T04:23:28;99889.45;;;19.20;72.47
77454;BME280;66538;53.150;18.160;2023-07-02T04:25:55;99880.41;;;19.25;72.22
77454;BME280;66538;53.150;18.160;2023-07-02T04:28:21;99882.15;;;19.35;72.14
77454;BME280;66538;53.150;18.160;2023-07-02T04:30:48;99875.85;;;19.47;71.83
77454;BME280;66538;53.150;18.160;2023-07-02T04:33:17;99877.09;;;19.54;71.43
77454;BME280;66538;53.150;18.160;2023-07-02T04:35:44;99880.86;;;19.59;71.41
77454;BME280;66538;53.150;18.160;2023-07-02T04:38:11;99876.04;;;19.64;71.12
77454;BME280;66538;53.150;18.160;2023-07-02T04:40:38;99884.15;;;19.66;70.91
77454;BME280;66538;53.150;18.160;2023-07-02T04:43:05;99882.23;;;19.71;70.90
77454;BME280;66538;53.150;18.160;2023-07-02T04:45:32;99884.10;;;19.75;70.85
77454;BME280;66538;53.150;18.160;2023-07-02T04:48:03;99887.09;;;19.81;70.72
77454;BME280;66538;53.150;18.160;2023-07-02T04:50:30;99888.37;;;19.82;70.46
77454;BME280;66538;53.150;18.160;2023-07-02T04:52:57;99885.48;;;19.80;70.41
77454;BME280;66538;53.150;18.160;2023-07-02T04:55:24;99892.21;;;19.78;70.46
77454;BME280;66538;53.150;18.160;2023-07-02T04:57:50;99895.70;;;19.79;70.43
77454;BME280;66538;53.150;18.160;2023-07-02T05:00:17;99894.63;;;19.77;70.53
77454;BME280;66538;53.150;18.160;2023-07-02T05:02:44;99896.41;;;19.74;70.66
77454;BME280;66538;53.150;18.160;2023-07-02T05:05:10;99899.45;;;19.73;70.59
77454;BME280;66538;53.150;18.160;2023-07-02T05:07:37;99893.59;;;19.72;71.00
77454;BME280;66538;53.150;18.160;2023-07-02T05:10:04;99902.86;;;19.71;71.54
77454;BME280;66538;53.150;18.160;2023-07-02T05:12:32;99905.80;;;19.70;72.50
77454;BME280;66538;53.150;18.160;2023-07-02T05:14:59;99908.98;;;19.60;73.19
77454;BME280;66538;53.150;18.160;2023-07-02T05:17:25;99916.52;;;19.47;74.49
77454;BME280;66538;53.150;18.160;2023-07-02T05:19:52;99925.41;;;19.30;75.42
77454;BME280;66538;53.150;18.160;2023-07-02T05:22:19;99923.35;;;19.13;75.60
77454;BME280;66538;53.150;18.160;2023-07-02T05:24:45;99937.56;;;18.98;76.54
77454;BME280;66538;53.150;18.160;2023-07-02T05:27:12;99942.20;;;18.82;76.96
77454;BME280;66538;53.150;18.160;2023-07-02T05:29:39;99931.77;;;18.69;77.38
77454;BME280;66538;53.150;18.160;2023-07-02T05:32:06;99934.91;;;18.67;77.01
77454;BME280;66538;53.150;18.160;2023-07-02T05:34:33;99938.35;;;18.66;77.23
77454;BME280;66538;53.150;18.160;2023-07-02T05:36:59;99943.02;;;18.69;76.78
77454;BME280;66538;53.150;18.160;2023-07-02T05:39:26;99943.78;;;18.71;77.32
77454;BME280;66538;53.150;18.160;2023-07-02T05:41:53;99946.49;;;18.75;77.50
77454;BME280;66538;53.150;18.160;2023-07-02T05:44:20;99943.87;;;18.78;77.27
77454;BME280;66538;53.150;18.160;2023-07-02T05:46:46;99946.28;;;18.84;77.27
77454;BME280;66538;53.150;18.160;2023-07-02T05:49:13;99948.15;;;18.88;76.68
77454;BME280;66538;53.150;18.160;2023-07-02T05:51:40;99949.92;;;18.92;76.56
77454;BME280;66538;53.150;18.160;2023-07-02T05:54:06;99951.77;;;19.01;76.30
77454;BME280;66538;53.150;18.160;2023-07-02T05:56:33;99946.01;;;19.07;75.89
77454;BME280;66538;53.150;18.160;2023-07-02T05:59:00;99948.39;;;19.19;76.05
77454;BME280;66538;53.150;18.160;2023-07-02T06:01:27;99948.51;;;19.29;75.47
77454;BME280;66538;53.150;18.160;2023-07-02T06:03:53;99951.05;;;19.40;75.32
77454;BME280;66538;53.150;18.160;2023-07-02T06:06:22;99955.95;;;19.45;75.28
77454;BME280;66538;53.150;18.160;2023-07-02T06:08:51;99952.21;;;19.49;75.14
77454;BME280;66538;53.150;18.160;2023-07-02T06:11:18;99952.91;;;19.51;75.00
77454;BME280;66538;53.150;18.160;2023-07-02T06:13:45;99938.08;;;19.55;74.56
77454;BME280;66538;53.150;18.160;2023-07-02T06:16:11;99933.63;;;19.61;74.45
77454;BME280;66538;53.150;18.160;2023-07-02T06:18:38;99934.85;;;19.68;74.14
77454;BME280;66538;53.150;18.160;2023-07-02T06:21:05;99933.41;;;19.69;73.44
77454;BME280;66538;53.150;18.160;2023-07-02T06:23:44;99944.48;;;19.73;73.26
77454;BME280;66538;53.150;18.160;2023-07-02T06:26:11;99948.35;;;19.84;73.01
77454;BME280;66538;53.150;18.160;2023-07-02T06:28:38;99952.59;;;20.00;72.56
77454;BME280;66538;53.150;18.160;2023-07-02T06:31:05;99958.31;;;20.09;71.35
77454;BME280;66538;53.150;18.160;2023-07-02T06:33:32;99956.65;;;20.14;71.61
77454;BME280;66538;53.150;18.160;2023-07-02T06:35:58;99961.72;;;20.18;71.02
77454;BME280;66538;53.150;18.160;2023-07-02T06:38:25;99969.42;;;20.25;70.06
77454;BME280;66538;53.150;18.160;2023-07-02T06:40:52;99962.70;;;20.32;69.53
77454;BME280;66538;53.150;18.160;2023-07-02T06:43:18;99967.09;;;20.37;68.96
77454;BME280;66538;53.150;18.160;2023-07-02T06:45:45;99958.96;;;20.45;67.92
77454;BME280;66538;53.150;18.160;2023-07-02T06:48:12;99958.00;;;20.56;66.48
77454;BME280;66538;53.150;18.160;2023-07-02T06:50:43;99968.49;;;20.71;65.72
77454;BME280;66538;53.150;18.160;2023-07-02T06:53:10;99967.14;;;20.82;64.74
77454;BME280;66538;53.150;18.160;2023-07-02T06:55:37;99965.33;;;20.91;63.36
77454;BME280;66538;53.150;18.160;2023-07-02T06:58:05;99969.55;;;21.07;61.78
77454;BME280;66538;53.150;18.160;2023-07-02T07:00:32;99970.98;;;21.23;60.86
77454;BME280;66538;53.150;18.160;2023-07-02T07:03:03;99974.53;;;21.46;60.27
77454;BME280;66538;53.150;18.160;2023-07-02T07:05:31;99977.92;;;21.66;58.45
77454;BME280;66538;53.150;18.160;2023-07-02T07:07:59;99984.70;;;21.69;58.19
77454;BME280;66538;53.150;18.160;2023-07-02T07:10:27;99984.52;;;21.54;57.63
77454;BME280;66538;53.150;18.160;2023-07-02T07:12:54;99993.04;;;21.38;58.98
77454;BME280;66538;53.150;18.160;2023-07-02T07:15:21;99998.38;;;21.40;59.46
77454;BME280;66538;53.150;18.160;2023-07-02T07:17:47;99994.42;;;21.49;58.34
77454;BME280;66538;53.150;18.160;2023-07-02T07:20:14;99997.95;;;21.45;57.29
77454;BME280;66538;53.150;18.160;2023-07-02T07:22:41;100003.27;;;21.37;57.88
77454;BME280;66538;53.150;18.160;2023-07-02T07:25:08;100006.27;;;21.30;58.12
77454;BME280;66538;53.150;18.160;2023-07-02T07:27:35;100009.16;;;21.20;58.07
77454;BME280;66538;53.150;18.160;2023-07-02T07:30:02;100011.30;;;21.14;58.50
77454;BME280;66538;53.150;18.160;2023-07-02T07:32:29;100014.45;;;21.11;58.46
77454;BME280;66538;53.150;18.160;2023-07-02T07:34:55;100013.63;;;21.12;58.37
77454;BME280;66538;53.150;18.160;2023-07-02T07:37:22;100008.23;;;21.27;58.61
77454;BME280;66538;53.150;18.160;2023-07-02T07:39:49;100015.54;;;21.51;57.79
77454;BME280;66538;53.150;18.160;2023-07-02T07:42:15;100012.61;;;21.68;56.04
77454;BME280;66538;53.150;18.160;2023-07-02T07:44:46;100008.02;;;21.70;55.62
77454;BME280;66538;53.150;18.160;2023-07-02T07:47:13;100007.14;;;21.75;55.36
77454;BME280;66538;53.150;18.160;2023-07-02T07:49:39;100013.13;;;21.72;54.79
77454;BME280;66538;53.150;18.160;2023-07-02T07:52:07;100008.20;;;21.68;54.84
77454;BME280;66538;53.150;18.160;2023-07-02T07:54:33;100011.79;;;21.69;54.55
77454;BME280;66538;53.150;18.160;2023-07-02T07:57:04;100013.36;;;21.68;53.87
77454;BME280;66538;53.150;18.160;2023-07-02T07:59:31;100012.65;;;21.74;53.28
77454;BME280;66538;53.150;18.160;2023-07-02T08:01:57;100013.73;;;21.84;53.01
77454;BME280;66538;53.150;18.160;2023-07-02T08:04:24;100019.31;;;21.90;53.04
77454;BME280;66538;53.150;18.160;2023-07-02T08:06:51;100018.53;;;22.11;52.75
77454;BME280;66538;53.150;18.160;2023-07-02T08:09:17;100019.27;;;22.27;52.34
77454;BME280;66538;53.150;18.160;2023-07-02T08:11:45;100021.48;;;22.38;51.66
77454;BME280;66538;53.150;18.160;2023-07-02T08:14:12;100018.77;;;22.33;49.40
77454;BME280;66538;53.150;18.160;2023-07-02T08:16:39;100025.77;;;22.23;49.12
77454;BME280;66538;53.150;18.160;2023-07-02T08:19:06;100030.00;;;22.29;48.96
77454;BME280;66538;53.150;18.160;2023-07-02T08:21:32;100023.45;;;22.38;48.80
77454;BME280;66538;53.150;18.160;2023-07-02T08:23:59;100027.07;;;22.32;48.01
77454;BME280;66538;53.150;18.160;2023-07-02T08:26:26;100028.05;;;22.16;48.54
77454;BME280;66538;53.150;18.160;2023-07-02T08:28:53;100033.91;;;22.03;47.89
77454;BME280;66538;53.150;18.160;2023-07-02T08:31:20;100037.22;;;21.92;48.46
77454;BME280;66538;53.150;18.160;2023-07-02T08:33:46;100042.98;;;21.75;48.65
77454;BME280;66538;53.150;18.160;2023-07-02T08:36:13;100041.84;;;21.68;48.71
77454;BME280;66538;53.150;18.160;2023-07-02T08:38:42;100032.42;;;21.64;48.90
77454;BME280;66538;53.150;18.160;2023-07-02T08:41:09;100034.42;;;21.68;48.62
77454;BME280;66538;53.150;18.160;2023-07-02T08:43:37;100038.79;;;21.72;48.06
77454;BME280;66538;53.150;18.160;2023-07-02T08:46:04;100036.13;;;21.73;48.08
77454;BME280;66538;53.150;18.160;2023-07-02T08:48:30;100035.11;;;21.73;48.37
77454;BME280;66538;53.150;18.160;2023-07-02T08:50:57;100037.98;;;21.76;48.15
77454;BME280;66538;53.150;18.160;2023-07-02T08:53:24;100037.84;;;21.81;47.88
77454;BME280;66538;53.150;18.160;2023-07-02T08:56:01;100045.70;;;21.90;47.36
77454;BME280;66538;53.150;18.160;2023-07-02T08:58:29;100049.13;;;21.94;47.10
77454;BME280;66538;53.150;18.160;2023-07-02T09:03:36;100046.16;;;22.31;46.16
77454;BME280;66538;53.150;18.160;2023-07-02T09:06:08;100047.22;;;22.51;45.38
77454;BME280;66538;53.150;18.160;2023-07-02T09:08:35;100036.71;;;22.54;44.57
77454;BME280;66538;53.150;18.160;2023-07-02T09:13:53;100039.18;;;22.56;45.33
77454;BME280;66538;53.150;18.160;2023-07-02T09:16:27;100041.11;;;22.64;44.88
77454;BME280;66538;53.150;18.160;2023-07-02T09:19:08;100038.44;;;22.73;44.44
77454;BME280;66538;53.150;18.160;2023-07-02T09:21:41;100034.79;;;22.80;43.53
77454;BME280;66538;53.150;18.160;2023-07-02T09:26:45;100029.05;;;22.95;42.73
77454;BME280;66538;53.150;18.160;2023-07-02T09:29:13;100020.64;;;23.01;43.30
77454;BME280;66538;53.150;18.160;2023-07-02T09:31:44;100018.93;;;23.13;42.75
77454;BME280;66538;53.150;18.160;2023-07-02T09:34:12;100019.23;;;23.24;42.70
77454;BME280;66538;53.150;18.160;2023-07-02T09:36:39;100033.58;;;23.34;41.93
77454;BME280;66538;53.150;18.160;2023-07-02T09:39:24;100034.54;;;23.39;41.56
77454;BME280;66538;53.150;18.160;2023-07-02T09:41:51;100040.11;;;23.50;41.25
77454;BME280;66538;53.150;18.160;2023-07-02T09:44:19;100039.85;;;23.68;41.44
77454;BME280;66538;53.150;18.160;2023-07-02T09:49:23;100040.67;;;24.00;40.51
77454;BME280;66538;53.150;18.160;2023-07-02T09:51:51;100043.95;;;24.12;40.67
77454;BME280;66538;53.150;18.160;2023-07-02T09:54:19;100041.98;;;24.24;40.15
77454;BME280;66538;53.150;18.160;2023-07-02T09:56:49;100036.88;;;24.28;39.95
77454;BME280;66538;53.150;18.160;2023-07-02T09:59:16;100034.86;;;24.37;38.87
77454;BME280;66538;53.150;18.160;2023-07-02T10:01:43;100031.22;;;24.30;38.79
77454;BME280;66538;53.150;18.160;2023-07-02T10:04:12;100023.88;;;24.22;39.15
77454;BME280;66538;53.150;18.160;2023-07-02T10:06:53;100031.52;;;24.29;38.95
77454;BME280;66538;53.150;18.160;2023-07-02T10:09:35;100038.41;;;24.36;37.40
77454;BME280;66538;53.150;18.160;2023-07-02T10:12:17;100030.98;;;24.38;37.58
77454;BME280;66538;53.150;18.160;2023-07-02T10:14:45;100037.96;;;24.44;37.14
77454;BME280;66538;53.150;18.160;2023-07-02T10:17:32;100040.92;;;24.63;37.10
77454;BME280;66538;53.150;18.160;2023-07-02T10:20:02;100023.90;;;24.79;36.67
77454;BME280;66538;53.150;18.160;2023-07-02T10:22:44;100041.98;;;25.16;36.59
77454;BME280;66538;53.150;18.160;2023-07-02T10:25:11;100042.21;;;25.37;35.44
77454;BME280;66538;53.150;18.160;2023-07-02T10:27:39;100045.59;;;25.32;34.65
77454;BME280;66538;53.150;18.160;2023-07-02T10:30:08;100040.27;;;25.26;34.59
77454;BME280;66538;53.150;18.160;2023-07-02T10:32:36;100044.58;;;25.21;34.66
77454;BME280;66538;53.150;18.160;2023-07-02T10:35:17;100049.38;;;25.09;34.99
77454;BME280;66538;53.150;18.160;2023-07-02T10:37:45;100046.16;;;24.97;35.26
77454;BME280;66538;53.150;18.160;2023-07-02T10:40:12;100048.11;;;24.87;35.40
77454;BME280;66538;53.150;18.160;2023-07-02T10:42:46;100047.40;;;24.82;35.65
77454;BME280;66538;53.150;18.160;2023-07-02T10:45:13;100050.96;;;24.86;34.93
77454;BME280;66538;53.150;18.160;2023-07-02T10:47:40;100051.10;;;24.93;34.47
77454;BME280;66538;53.150;18.160;2023-07-02T10:50:18;100048.79;;;24.98;34.16
77454;BME280;66538;53.150;18.160;2023-07-02T10:52:46;100046.99;;;25.02;34.19
77454;BME280;66538;53.150;18.160;2023-07-02T10:55:18;100039.43;;;24.93;34.11
77454;BME280;66538;53.150;18.160;2023-07-02T10:57:45;100034.23;;;24.95;34.38
77454;BME280;66538;53.150;18.160;2023-07-02T11:00:13;100031.14;;;24.95;35.05
77454;BME280;66538;53.150;18.160;2023-07-02T11:02:40;100041.36;;;25.09;35.00
77454;BME280;66538;53.150;18.160;2023-07-02T11:05:08;100031.53;;;25.33;34.82
77454;BME280;66538;53.150;18.160;2023-07-02T11:07:42;100038.54;;;25.62;34.38
77454;BME280;66538;53.150;18.160;2023-07-02T11:10:10;100038.29;;;25.60;32.92
77454;BME280;66538;53.150;18.160;2023-07-02T11:12:38;100038.46;;;25.53;33.87
77454;BME280;66538;53.150;18.160;2023-07-02T11:15:12;100042.73;;;25.61;34.23
77454;BME280;66538;53.150;18.160;2023-07-02T11:17:40;100042.90;;;25.61;34.49
77454;BME280;66538;53.150;18.160;2023-07-02T11:20:09;100042.19;;;25.61;34.53
77454;BME280;66538;53.150;18.160;2023-07-02T11:22:38;100046.63;;;25.71;34.43
77454;BME280;66538;53.150;18.160;2023-07-02T11:25:12;100054.17;;;26.02;33.98
77454;BME280;66538;53.150;18.160;2023-07-02T11:27:40;100049.64;;;26.25;33.06
77454;BME280;66538;53.150;18.160;2023-07-02T11:30:09;100049.53;;;26.35;32.59
77454;BME280;66538;53.150;18.160;2023-07-02T11:32:53;100053.95;;;26.24;32.96
77454;BME280;66538;53.150;18.160;2023-07-02T11:35:21;100057.48;;;26.21;32.91
77454;BME280;66538;53.150;18.160;2023-07-02T11:37:48;100052.71;;;26.05;33.56
77454;BME280;66538;53.150;18.160;2023-07-02T11:40:18;100054.64;;;25.98;33.26
77454;BME280;66538;53.150;18.160;2023-07-02T11:42:46;100054.02;;;25.82;33.59
77454;BME280;66538;53.150;18.160;2023-07-02T11:45:12;100045.88;;;25.66;33.80
77454;BME280;66538;53.150;18.160;2023-07-02T11:47:39;100057.20;;;25.52;33.66
77454;BME280;66538;53.150;18.160;2023-07-02T11:50:07;100062.33;;;25.40;33.58
77454;BME280;66538;53.150;18.160;2023-07-02T11:52:34;100057.61;;;25.35;33.13
77454;BME280;66538;53.150;18.160;2023-07-02T11:55:00;100062.03;;;25.28;32.82
77454;BME280;66538;53.150;18.160;2023-07-02T11:57:27;100056.61;;;25.18;32.77
77454;BME280;66538;53.150;18.160;2023-07-02T11:59:53;100050.11;;;25.19;33.00
77454;BME280;66538;53.150;18.160;2023-07-02T12:02:20;100054.94;;;25.26;32.63
77454;BME280;66538;53.150;18.160;2023-07-02T12:04:46;100052.38;;;25.24;32.42
77454;BME280;66538;53.150;18.160;2023-07-02T12:07:13;100051.50;;;25.37;32.54
77454;BME280;66538;53.150;18.160;2023-07-02T12:09:40;100050.20;;;25.61;32.14
77454;BME280;66538;53.150;18.160;2023-07-02T12:12:07;100048.25;;;25.87;32.26
77454;BME280;66538;53.150;18.160;2023-07-02T12:14:34;100059.50;;;26.00;32.09
77454;BME280;66538;53.150;18.160;2023-07-02T12:17:01;100057.89;;;26.22;31.68
77454;BME280;66538;53.150;18.160;2023-07-02T12:19:27;100058.27;;;26.48;31.21
77454;BME280;66538;53.150;18.160;2023-07-02T12:21:54;100055.42;;;26.88;30.95
77454;BME280;66538;53.150;18.160;2023-07-02T12:24:20;100051.35;;;27.13;30.92
77454;BME280;66538;53.150;18.160;2023-07-02T12:26:47;100060.56;;;27.28;30.39
77454;BME280;66538;53.150;18.160;2023-07-02T12:29:14;100057.77;;;27.24;30.56
77454;BME280;66538;53.150;18.160;2023-07-02T12:31:40;100053.54;;;26.97;30.19
77454;BME280;66538;53.150;18.160;2023-07-02T12:34:07;100056.80;;;26.54;30.95
77454;BME280;66538;53.150;18.160;2023-07-02T12:36:33;100063.66;;;26.15;31.49
77454;BME280;66538;53.150;18.160;2023-07-02T12:39:00;100066.74;;;25.82;32.29
77454;BME280;66538;53.150;18.160;2023-07-02T12:41:27;100070.42;;;25.57;32.86
77454;BME280;66538;53.150;18.160;2023-07-02T12:43:54;100069.10;;;25.43;33.20
77454;BME280;66538;53.150;18.160;2023-07-02T12:46:21;100070.85;;;25.51;33.31
77454;BME280;66538;53.150;18.160;2023-07-02T12:48:48;100071.95;;;25.77;33.16
77454;BME280;66538;53.150;18.160;2023-07-02T12:51:15;100069.98;;;26.10;32.79
77454;BME280;66538;53.150;18.160;2023-07-02T12:53:42;100064.96;;;26.22;32.59
77454;BME280;66538;53.150;18.160;2023-07-02T12:56:10;100074.31;;;26.14;32.77
77454;BME280;66538;53.150;18.160;2023-07-02T12:58:37;100073.23;;;26.08;33.07
77454;BME280;66538;53.150;18.160;2023-07-02T13:01:04;100073.25;;;26.25;32.65